sensor_id;sensor_type;location;lat;lon;timestamp;pressure;altitude;pressure_sealevel;temperature;humidity
48796;BME280;34607;48.520;-1.330;2023-07-13T07:53:24;100651.09;;;17.49;100.00
48796;BME280;34607;48.520;-1.330;2023-07-13T07:55:51;100646.69;;;17.52;100.00
48796;BME280;34607;48.520;-1.330;2023-07-13T07:58:24;100643.16;;;17.58;100.00
48796;BME280;34607;48.520;-1.330;2023-07-13T08:00:51;100646.66;;;17.60;100.00
48796;BME280;34607;48.520;-1.330;2023-07-13T08:03:18;100640.50;;;17.63;100.00
48796;BME280;34607;48.520;-1.330;2023-07-13T08:05:45;100616.19;;;17.50;99.96
48796;BME280;34607;48.520;-1.330;2023-07-13T08:08:12;100636.94;;;17.68;99.85
48796;BME280;34607;48.520;-1.330;2023-07-13T08:10:41;100644.75;;;17.79;99.80
48796;BME280;34607;48.520;-1.330;2023-07-13T08:13:08;100645.63;;;17.76;99.56
48796;BME280;34607;48.520;-1.330;2023-07-13T08:15:36;100643.91;;;17.74;99.48
48796;BME280;34607;48.520;-1.330;2023-07-13T08:18:03;100644.66;;;17.85;99.30
48796;BME280;34607;48.520;-1.330;2023-07-13T08:20:30;100649.03;;;17.91;98.82
48796;BME280;34607;48.520;-1.330;2023-07-13T08:22:57;100647.97;;;18.10;98.48
48796;BME280;34607;48.520;-1.330;2023-07-13T08:25:24;100647.81;;;18.26;97.46
48796;BME280;34607;48.520;-1.330;2023-07-13T08:27:52;100638.97;;;18.34;97.03
48796;BME280;34607;48.520;-1.330;2023-07-13T08:30:20;100647.53;;;18.50;96.47
48796;BME280;34607;48.520;-1.330;2023-07-13T08:32:47;100649.16;;;18.59;95.95
48796;BME280;34607;48.520;-1.330;2023-07-13T08:35:14;100644.53;;;18.84;95.28
48796;BME280;34607;48.520;-1.330;2023-07-13T08:37:41;100642.31;;;19.17;94.32
48796;BME280;34607;48.520;-1.330;2023-07-13T08:40:10;100641.06;;;19.43;92.74
48796;BME280;34607;48.520;-1.330;2023-07-13T08:42:39;100622.69;;;19.41;92.45
48796;BME280;34607;48.520;-1.330;2023-07-13T08:45:17;100631.09;;;19.63;91.89
48796;BME280;34607;48.520;-1.330;2023-07-13T08:47:49;100635.88;;;19.93;91.13
48796;BME280;34607;48.520;-1.330;2023-07-13T08:50:22;100632.94;;;20.11;89.13
48796;BME280;34607;48.520;-1.330;2023-07-13T08:52:51;100638.84;;;20.24;88.69
48796;BME280;34607;48.520;-1.330;2023-07-13T08:55:20;100633.16;;;20.44;88.80
48796;BME280;34607;48.520;-1.330;2023-07-13T08:57:51;100633.03;;;20.52;87.32
48796;BME280;34607;48.520;-1.330;2023-07-13T09:00:25;100633.13;;;20.46;86.83
48796;BME280;34607;48.520;-1.330;2023-07-13T09:03:00;100629.44;;;20.56;86.96
48796;BME280;34607;48.520;-1.330;2023-07-13T09:05:30;100630.22;;;21.03;87.35
48796;BME280;34607;48.520;-1.330;2023-07-13T09:08:08;100619.91;;;21.67;84.00
48796;BME280;34607;48.520;-1.330;2023-07-13T09:10:43;100620.44;;;21.82;82.98
48796;BME280;34607;48.520;-1.330;2023-07-13T09:13:23;100618.03;;;21.73;81.36
48796;BME280;34607;48.520;-1.330;2023-07-13T09:15:55;100588.19;;;21.36;81.64
48796;BME280;34607;48.520;-1.330;2023-07-13T09:18:27;100626.69;;;21.40;81.87
48796;BME280;34607;48.520;-1.330;2023-07-13T09:20:58;100616.34;;;21.70;82.06
48796;BME280;34607;48.520;-1.330;2023-07-13T09:23:28;100602.66;;;22.23;80.52
48796;BME280;34607;48.520;-1.330;2023-07-13T09:26:01;100611.72;;;22.75;78.30
48796;BME280;34607;48.520;-1.330;2023-07-13T09:28:35;100606.88;;;22.90;76.83
48796;BME280;34607;48.520;-1.330;2023-07-13T09:31:09;100609.75;;;23.12;75.90
48796;BME280;34607;48.520;-1.330;2023-07-13T09:33:39;100607.72;;;23.20;75.15
48796;BME280;34607;48.520;-1.330;2023-07-13T09:36:18;100611.16;;;23.24;73.81
48796;BME280;34607;48.520;-1.330;2023-07-13T09:38:46;100604.72;;;23.58;72.00
48796;BME280;34607;48.520;-1.330;2023-07-13T09:41:20;100598.59;;;23.84;72.99
48796;BME280;34607;48.520;-1.330;2023-07-13T09:44:11;100607.22;;;23.62;69.04
48796;BME280;34607;48.520;-1.330;2023-07-13T09:46:44;100604.81;;;23.83;70.96
48796;BME280;34607;48.520;-1.330;2023-07-13T09:49:12;100610.06;;;24.09;70.82
48796;BME280;34607;48.520;-1.330;2023-07-13T09:51:41;100585.25;;;24.12;70.70
48796;BME280;34607;48.520;-1.330;2023-07-13T09:54:18;100612.84;;;24.77;69.46
48796;BME280;34607;48.520;-1.330;2023-07-13T09:56:46;100622.19;;;24.64;68.67
48796;BME280;34607;48.520;-1.330;2023-07-13T09:59:19;100618.16;;;23.78;69.19
48796;BME280;34607;48.520;-1.330;2023-07-13T10:01:48;100609.50;;;23.19;70.17
48796;BME280;34607;48.520;-1.330;2023-07-13T10:04:17;100619.50;;;22.80;70.92
48796;BME280;34607;48.520;-1.330;2023-07-13T10:06:45;100619.75;;;22.41;71.82
48796;BME280;34607;48.520;-1.330;2023-07-13T10:09:15;100626.25;;;21.95;73.19
48796;BME280;34607;48.520;-1.330;2023-07-13T10:11:42;100627.56;;;21.78;74.25
48796;BME280;34607;48.520;-1.330;2023-07-13T10:14:13;100626.63;;;21.81;74.70
48796;BME280;34607;48.520;-1.330;2023-07-13T10:16:43;100618.75;;;21.79;73.57
48796;BME280;34607;48.520;-1.330;2023-07-13T10:19:14;100630.50;;;21.66;73.76
48796;BME280;34607;48.520;-1.330;2023-07-13T10:21:50;100617.81;;;21.47;73.70
48796;BME280;34607;48.520;-1.330;2023-07-13T10:24:22;100626.66;;;21.42;73.92
48796;BME280;34607;48.520;-1.330;2023-07-13T10:26:54;100627.72;;;21.35;72.77
48796;BME280;34607;48.520;-1.330;2023-07-13T10:29:25;100625.72;;;21.47;74.55
48796;BME280;34607;48.520;-1.330;2023-07-13T10:31:53;100629.59;;;21.67;72.50
48796;BME280;34607;48.520;-1.330;2023-07-13T10:34:22;100635.69;;;21.69;71.70
48796;BME280;34607;48.520;-1.330;2023-07-13T10:36:51;100638.75;;;21.52;70.06
48796;BME280;34607;48.520;-1.330;2023-07-13T10:39:20;100641.94;;;21.27;70.84
48796;BME280;34607;48.520;-1.330;2023-07-13T10:41:50;100646.72;;;21.11;70.77
48796;BME280;34607;48.520;-1.330;2023-07-13T10:44:23;100656.50;;;21.05;72.27
48796;BME280;34607;48.520;-1.330;2023-07-13T10:46:57;100650.31;;;21.06;70.71
48796;BME280;34607;48.520;-1.330;2023-07-13T10:51:55;100656.75;;;20.94;70.20
48796;BME280;34607;48.520;-1.330;2023-07-13T10:54:27;100629.88;;;20.78;70.61
48796;BME280;34607;48.520;-1.330;2023-07-13T10:57:13;100651.34;;;21.00;70.13
48796;BME280;34607;48.520;-1.330;2023-07-13T10:59:42;100648.66;;;21.03;70.52
48796;BME280;34607;48.520;-1.330;2023-07-13T11:02:16;100643.22;;;21.09;70.10
48796;BME280;34607;48.520;-1.330;2023-07-13T11:04:48;100643.78;;;21.24;70.91
48796;BME280;34607;48.520;-1.330;2023-07-13T11:07:22;100634.59;;;21.40;71.06
48796;BME280;34607;48.520;-1.330;2023-07-13T11:09:50;100627.03;;;21.64;70.91
48796;BME280;34607;48.520;-1.330;2023-07-13T11:12:51;100640.09;;;22.03;69.77
48796;BME280;34607;48.520;-1.330;2023-07-13T11:15:31;100632.69;;;22.17;69.01
48796;BME280;34607;48.520;-1.330;2023-07-13T11:18:03;100637.94;;;22.17;69.01
48796;BME280;34607;48.520;-1.330;2023-07-13T11:20:36;100621.16;;;21.88;68.47
48796;BME280;34607;48.520;-1.330;2023-07-13T11:23:18;100640.16;;;21.67;68.70
48796;BME280;34607;48.520;-1.330;2023-07-13T11:25:47;100646.84;;;21.43;70.37
48796;BME280;34607;48.520;-1.330;2023-07-13T11:28:20;100644.72;;;21.21;70.23
48796;BME280;34607;48.520;-1.330;2023-07-13T11:30:48;100653.53;;;20.80;69.10
48796;BME280;34607;48.520;-1.330;2023-07-13T11:33:18;100650.06;;;20.77;71.20
48796;BME280;34607;48.520;-1.330;2023-07-13T11:35:51;100653.53;;;20.80;71.25
48796;BME280;34607;48.520;-1.330;2023-07-13T11:38:24;100649.91;;;20.85;71.41
48796;BME280;34607;48.520;-1.330;2023-07-13T11:40:55;100651.69;;;20.83;71.23
48796;BME280;34607;48.520;-1.330;2023-07-13T11:43:25;100641.00;;;20.92;71.78
48796;BME280;34607;48.520;-1.330;2023-07-13T11:45:52;100645.03;;;21.07;71.59
48796;BME280;34607;48.520;-1.330;2023-07-13T11:48:22;100631.81;;;21.10;71.18
48796;BME280;34607;48.520;-1.330;2023-07-13T11:50:51;100647.34;;;21.21;71.40
48796;BME280;34607;48.520;-1.330;2023-07-13T11:53:22;100640.94;;;21.33;72.58
48796;BME280;34607;48.520;-1.330;2023-07-13T11:55:52;100632.91;;;21.39;71.70
48796;BME280;34607;48.520;-1.330;2023-07-13T11:58:23;100644.34;;;21.37;72.15
48796;BME280;34607;48.520;-1.330;2023-07-13T12:00:51;100638.25;;;21.35;71.61
48796;BME280;34607;48.520;-1.330;2023-07-13T12:03:22;100643.22;;;21.48;72.01
48796;BME280;34607;48.520;-1.330;2023-07-13T12:05:59;100636.28;;;21.44;70.05
48796;BME280;34607;48.520;-1.330;2023-07-13T12:08:29;100644.44;;;21.33;69.54
48796;BME280;34607;48.520;-1.330;2023-07-13T12:10:58;100630.19;;;21.42;70.23
48796;BME280;34607;48.520;-1.330;2023-07-13T12:13:27;100637.38;;;21.73;70.82
48796;BME280;34607;48.520;-1.330;2023-07-13T12:15:56;100630.72;;;21.93;70.14
48796;BME280;34607;48.520;-1.330;2023-07-13T12:18:29;100633.34;;;21.93;69.83
48796;BME280;34607;48.520;-1.330;2023-07-13T12:20:59;100630.75;;;21.91;69.85
48796;BME280;34607;48.520;-1.330;2023-07-13T12:23:30;100637.84;;;21.89;69.93
48796;BME280;34607;48.520;-1.330;2023-07-13T12:28:31;100612.81;;;22.05;70.53
48796;BME280;34607;48.520;-1.330;2023-07-13T12:30:59;100638.56;;;22.27;70.72
48796;BME280;34607;48.520;-1.330;2023-07-13T12:33:28;100629.56;;;22.67;70.78
48796;BME280;34607;48.520;-1.330;2023-07-13T12:35:56;100633.47;;;22.84;69.61
48796;BME280;34607;48.520;-1.330;2023-07-13T12:38:25;100622.44;;;22.99;69.13
48796;BME280;34607;48.520;-1.330;2023-07-13T12:40:53;100616.09;;;22.76;68.54
48796;BME280;34607;48.520;-1.330;2023-07-13T12:43:21;100624.91;;;22.46;68.63
48796;BME280;34607;48.520;-1.330;2023-07-13T12:45:56;100628.66;;;22.68;68.48
48796;BME280;34607;48.520;-1.330;2023-07-13T12:48:24;100623.44;;;22.65;68.26
48796;BME280;34607;48.520;-1.330;2023-07-13T12:50:53;100620.41;;;22.49;67.92
48796;BME280;34607;48.520;-1.330;2023-07-13T12:53:27;100619.75;;;22.41;69.87
48796;BME280;34607;48.520;-1.330;2023-07-13T12:56:01;100617.69;;;22.52;71.05
48796;BME280;34607;48.520;-1.330;2023-07-13T12:58:30;100616.34;;;22.97;70.95
48796;BME280;34607;48.520;-1.330;2023-07-13T13:01:00;100610.53;;;23.42;70.48
48796;BME280;34607;48.520;-1.330;2023-07-13T13:03:31;100622.03;;;23.41;70.44
48796;BME280;34607;48.520;-1.330;2023-07-13T13:06:00;100611.47;;;23.13;70.04
48796;BME280;34607;48.520;-1.330;2023-07-13T13:08:29;100615.03;;;23.12;70.51
48796;BME280;34607;48.520;-1.330;2023-07-13T13:10:57;100615.38;;;23.29;69.81
48796;BME280;34607;48.520;-1.330;2023-07-13T13:13:25;100606.94;;;23.45;69.99
48796;BME280;34607;48.520;-1.330;2023-07-13T13:15:52;100596.31;;;23.46;68.81
48796;BME280;34607;48.520;-1.330;2023-07-13T13:18:22;100611.19;;;23.75;68.90
48796;BME280;34607;48.520;-1.330;2023-07-13T13:20:50;100605.56;;;23.86;69.29
48796;BME280;34607;48.520;-1.330;2023-07-13T13:23:19;100603.56;;;23.93;67.86
48796;BME280;34607;48.520;-1.330;2023-07-13T13:25:50;100592.88;;;23.69;68.69
48796;BME280;34607;48.520;-1.330;2023-07-13T13:28:19;100599.31;;;23.89;68.05
48796;BME280;34607;48.520;-1.330;2023-07-13T13:30:49;100599.06;;;24.20;67.24
48796;BME280;34607;48.520;-1.330;2023-07-13T13:33:18;100589.81;;;24.32;67.09
48796;BME280;34607;48.520;-1.330;2023-07-13T13:35:46;100579.97;;;23.87;67.16
48796;BME280;34607;48.520;-1.330;2023-07-13T13:38:14;100594.81;;;24.40;67.47
48796;BME280;34607;48.520;-1.330;2023-07-13T13:40:42;100596.31;;;24.47;67.05
48796;BME280;34607;48.520;-1.330;2023-07-13T13:43:14;100598.53;;;24.10;67.55
48796;BME280;34607;48.520;-1.330;2023-07-13T13:45:44;100593.69;;;23.71;69.80
48796;BME280;34607;48.520;-1.330;2023-07-13T13:48:18;100580.00;;;23.33;68.64
48796;BME280;34607;48.520;-1.330;2023-07-13T13:50:46;100596.16;;;23.24;69.07
48796;BME280;34607;48.520;-1.330;2023-07-13T13:53:14;100610.75;;;23.08;69.33
48796;BME280;34607;48.520;-1.330;2023-07-13T13:55:41;100604.03;;;22.96;69.88
48796;BME280;34607;48.520;-1.330;2023-07-13T13:58:10;100616.22;;;22.72;69.92
48796;BME280;34607;48.520;-1.330;2023-07-13T14:00:37;100624.84;;;22.16;70.67
48796;BME280;34607;48.520;-1.330;2023-07-13T14:03:10;100642.69;;;21.72;75.14
48796;BME280;34607;48.520;-1.330;2023-07-13T14:05:41;100649.94;;;21.23;79.65
48796;BME280;34607;48.520;-1.330;2023-07-13T14:08:12;100650.44;;;21.01;81.97
48796;BME280;34607;48.520;-1.330;2023-07-13T14:10:40;100653.44;;;20.84;83.12
48796;BME280;34607;48.520;-1.330;2023-07-13T14:13:16;100650.91;;;20.80;84.17
48796;BME280;34607;48.520;-1.330;2023-07-13T14:15:44;100652.06;;;20.65;84.72
48796;BME280;34607;48.520;-1.330;2023-07-13T14:18:13;100647.59;;;20.70;84.88
48796;BME280;34607;48.520;-1.330;2023-07-13T14:20:43;100646.38;;;20.86;84.88
48796;BME280;34607;48.520;-1.330;2023-07-13T14:23:12;100630.38;;;20.53;85.74
48796;BME280;34607;48.520;-1.330;2023-07-13T14:25:39;100646.78;;;20.66;85.69
48796;BME280;34607;48.520;-1.330;2023-07-13T14:28:18;100634.78;;;20.53;85.66
48796;BME280;34607;48.520;-1.330;2023-07-13T14:30:46;100640.69;;;20.19;87.40
48796;BME280;34607;48.520;-1.330;2023-07-13T14:33:15;100639.47;;;20.35;87.09
48796;BME280;34607;48.520;-1.330;2023-07-13T14:35:42;100640.53;;;20.27;87.50
48796;BME280;34607;48.520;-1.330;2023-07-13T14:38:13;100643.66;;;20.00;88.46
48796;BME280;34607;48.520;-1.330;2023-07-13T14:40:42;100632.13;;;20.08;88.73
48796;BME280;34607;48.520;-1.330;2023-07-13T14:43:12;100627.66;;;20.58;87.45
48796;BME280;34607;48.520;-1.330;2023-07-13T14:45:41;100633.41;;;20.79;86.27
48796;BME280;34607;48.520;-1.330;2023-07-13T14:48:21;100632.41;;;20.83;86.31
48796;BME280;34607;48.520;-1.330;2023-07-13T14:50:51;100629.88;;;20.78;85.46
48796;BME280;34607;48.520;-1.330;2023-07-13T14:53:20;100621.63;;;20.53;86.00
48796;BME280;34607;48.520;-1.330;2023-07-13T14:55:47;100628.19;;;20.75;85.74
48796;BME280;34607;48.520;-1.330;2023-07-13T14:58:14;100621.34;;;21.07;84.88
48796;BME280;34607;48.520;-1.330;2023-07-13T15:00:42;100615.41;;;21.35;84.31
48796;BME280;34607;48.520;-1.330;2023-07-13T15:03:19;100616.03;;;21.82;83.25
48796;BME280;34607;48.520;-1.330;2023-07-13T15:05:48;100613.47;;;21.79;82.36
48796;BME280;34607;48.520;-1.330;2023-07-13T15:08:15;100615.06;;;21.50;82.48
48796;BME280;34607;48.520;-1.330;2023-07-13T15:10:43;100615.97;;;21.12;83.14
48796;BME280;34607;48.520;-1.330;2023-07-13T15:13:15;100613.44;;;20.68;83.26
48796;BME280;34607;48.520;-1.330;2023-07-13T15:15:45;100606.78;;;20.92;83.74
48796;BME280;34607;48.520;-1.330;2023-07-13T15:18:14;100602.34;;;21.32;81.82
48796;BME280;34607;48.520;-1.330;2023-07-13T15:20:45;100602.53;;;21.60;81.12
48796;BME280;34607;48.520;-1.330;2023-07-13T15:23:13;100606.22;;;21.55;80.39
48796;BME280;34607;48.520;-1.330;2023-07-13T15:25:41;100606.13;;;21.58;79.92
48796;BME280;34607;48.520;-1.330;2023-07-13T15:28:09;100601.72;;;21.93;78.38
48796;BME280;34607;48.520;-1.330;2023-07-13T15:30:40;100610.91;;;21.76;78.18
48796;BME280;34607;48.520;-1.330;2023-07-13T15:33:12;100602.25;;;21.71;79.04
48796;BME280;34607;48.520;-1.330;2023-07-13T15:35:44;100608.19;;;21.79;79.25
48796;BME280;34607;48.520;-1.330;2023-07-13T15:38:16;100598.44;;;21.83;77.54
48796;BME280;34607;48.520;-1.330;2023-07-13T15:40:44;100595.69;;;21.87;78.53
48796;BME280;34607;48.520;-1.330;2023-07-13T15:43:11;100586.97;;;21.85;77.96
48796;BME280;34607;48.520;-1.330;2023-07-13T15:45:39;100592.22;;;21.85;78.42
48796;BME280;34607;48.520;-1.330;2023-07-13T15:48:13;100593.13;;;21.84;78.20
48796;BME280;34607;48.520;-1.330;2023-07-13T15:50:44;100588.34;;;21.66;78.97
48796;BME280;34607;48.520;-1.330;2023-07-13T15:53:13;100584.56;;;21.76;79.27
48796;BME280;34607;48.520;-1.330;2023-07-13T15:55:42;100581.44;;;21.95;78.71
48796;BME280;34607;48.520;-1.330;2023-07-13T15:58:11;100587.78;;;21.87;78.31
48796;BME280;34607;48.520;-1.330;2023-07-13T16:00:40;100582.19;;;21.65;78.56
48796;BME280;34607;48.520;-1.330;2023-07-13T16:03:08;100581.09;;;21.74;78.77
48796;BME280;34607;48.520;-1.330;2023-07-13T16:05:35;100572.94;;;21.85;79.53
48796;BME280;34607;48.520;-1.330;2023-07-13T16:08:05;100568.50;;;21.85;78.23
48796;BME280;34607;48.520;-1.330;2023-07-13T16:10:35;100580.16;;;21.77;77.19
48796;BME280;34607;48.520;-1.330;2023-07-13T16:13:09;100579.41;;;21.72;77.95
48796;BME280;34607;48.520;-1.330;2023-07-13T16:15:40;100577.66;;;21.72;77.10
48796;BME280;34607;48.520;-1.330;2023-07-13T16:18:10;100564.69;;;21.64;77.08
48796;BME280;34607;48.520;-1.330;2023-07-13T16:20:38;100565.41;;;21.69;75.16
48796;BME280;34607;48.520;-1.330;2023-07-13T16:23:09;100567.09;;;21.36;74.98
48796;BME280;34607;48.520;-1.330;2023-07-13T16:25:37;100565.09;;;21.11;74.82
48796;BME280;34607;48.520;-1.330;2023-07-13T16:28:04;100564.78;;;21.24;76.01
48796;BME280;34607;48.520;-1.330;2023-07-13T16:30:32;100561.16;;;21.28;75.46
48796;BME280;34607;48.520;-1.330;2023-07-13T16:33:00;100566.78;;;21.12;75.50
48796;BME280;34607;48.520;-1.330;2023-07-13T16:35:32;100550.78;;;21.22;75.68
